Time;durP1;ratioP1;P1;durP2;ratioP2;P2;SDS_P1;SDS_P2;PMS_P1;PMS_P2;Temp;Humidity;BMP_temperature;BMP_pressure;BME280_temperature;BME280_humidity;BME280_pressure;Samples;Min_cycle;Max_cycle;Signal;HPM_P1;HPM_P2
2023/07/13 00:02:14;;;;;;;1.48;0.93;;;;;;;19.33;50.81;95690.41;5011657;28;20178;-79
2023/07/13 00:04:39;;;;;;;3.42;1.33;;;;;;;19.42;50.59;95692.66;5028956;28;20206;-78
2023/07/13 00:07:05;;;;;;;3.05;1.40;;;;;;;19.42;50.67;95697.91;5022571;28;20230;-80
2023/07/13 00:09:30;;;;;;;3.08;1.25;;;;;;;19.51;50.09;95695.91;5021826;28;20198;-80
2023/07/13 00:11:57;;;;;;;5.78;1.10;;;;;;;19.42;50.00;95689.22;5012968;28;20225;-79
2023/07/13 00:14:24;;;;;;;5.93;1.30;;;;;;;19.29;50.45;95691.81;5023677;28;20202;-79
2023/07/13 00:16:49;;;;;;;2.88;1.30;;;;;;;19.37;50.04;95689.81;5030841;28;20828;-80
2023/07/13 00:19:14;;;;;;;4.60;1.45;;;;;;;19.28;50.54;95690.19;5022744;28;20269;-80
2023/07/13 00:21:40;;;;;;;2.88;1.10;;;;;;;19.42;50.47;95692.66;5023971;28;20231;-78
2023/07/13 00:24:07;;;;;;;4.60;1.40;;;;;;;19.31;50.81;95690.59;5041590;28;20179;-77
2023/07/13 00:26:32;;;;;;;4.50;1.33;;;;;;;19.29;50.10;95687.38;5047439;28;20279;-79
2023/07/13 00:28:58;;;;;;;3.38;1.35;;;;;;;19.21;49.97;95684.91;5036551;28;20172;-78
2023/07/13 00:31:25;;;;;;;5.15;1.60;;;;;;;19.18;50.68;95680.84;5052835;28;20210;-77
2023/07/13 00:33:50;;;;;;;3.70;1.35;;;;;;;19.15;50.58;95677.78;5034763;28;20176;-76
2023/07/13 00:36:16;;;;;;;3.60;1.30;;;;;;;19.09;50.59;95679.41;5033085;28;20751;-78
2023/07/13 00:38:41;;;;;;;3.42;1.30;;;;;;;19.14;50.86;95679.59;5013927;28;20653;-80
2023/07/13 00:41:06;;;;;;;2.42;1.20;;;;;;;19.15;50.14;95675.16;5015817;28;20225;-79
2023/07/13 00:43:32;;;;;;;7.05;1.30;;;;;;;19.04;50.06;95665.19;5006152;28;20198;-79
2023/07/13 00:46:28;;;;;;;2.40;1.02;;;;;;;19.21;49.33;95655.94;5021694;28;20226;-80
2023/07/13 00:48:55;;;;;;;5.78;1.65;;;;;;;19.13;49.55;95662.19;5018653;28;20206;-80
2023/07/13 00:51:25;;;;;;;3.05;1.42;;;;;;;19.11;50.28;95655.50;5026307;28;20214;-79
2023/07/13 00:53:53;;;;;;;3.13;1.52;;;;;;;19.02;50.28;95654.88;5024675;28;20205;-79
2023/07/13 00:56:18;;;;;;;4.32;1.30;;;;;;;18.99;50.39;95660.50;5029723;28;20214;-79
2023/07/13 00:58:44;;;;;;;4.25;1.50;;;;;;;18.95;50.56;95654.84;5028959;28;20205;-79
2023/07/13 01:01:09;;;;;;;3.90;1.50;;;;;;;18.98;50.38;95651.00;5030348;28;20268;-78
2023/07/13 01:03:35;;;;;;;6.38;1.30;;;;;;;18.90;50.78;95641.47;5024735;28;20241;-78
2023/07/13 01:06:01;;;;;;;2.88;1.13;;;;;;;18.85;50.65;95650.97;5016656;28;20579;-79
2023/07/13 01:08:26;;;;;;;2.88;1.25;;;;;;;18.86;50.85;95657.84;5063229;28;20194;-80
2023/07/13 01:10:53;;;;;;;4.88;1.55;;;;;;;18.74;51.07;95659.41;5029958;28;20944;-79
2023/07/13 01:13:19;;;;;;;2.50;1.10;;;;;;;18.77;50.98;95657.19;5032287;28;20190;-79
2023/07/13 01:15:47;;;;;;;5.32;1.67;;;;;;;18.71;51.25;95657.97;5026572;28;20216;-79
2023/07/13 01:18:15;;;;;;;3.17;1.55;;;;;;;18.72;51.09;95654.34;5031166;28;20194;-79
2023/07/13 01:20:46;;;;;;;2.90;1.42;;;;;;;18.66;51.20;95666.47;5027545;28;20332;-78
2023/07/13 01:23:12;;;;;;;3.83;1.25;;;;;;;18.75;50.81;95661.03;5033841;28;20181;-79
2023/07/13 01:25:38;;;;;;;3.15;1.67;;;;;;;18.67;50.93;95660.19;5017315;28;20218;-80
2023/07/13 01:28:05;;;;;;;3.80;1.30;;;;;;;18.64;51.32;95657.09;5013700;28;20201;-80
2023/07/13 01:30:31;;;;;;;4.07;1.60;;;;;;;18.66;50.77;95660.41;5015362;28;20692;-79
2023/07/13 01:32:57;;;;;;;3.45;1.38;;;;;;;18.56;51.21;95667.81;5013611;28;20381;-78
2023/07/13 01:35:22;;;;;;;9.93;1.65;;;;;;;18.46;51.42;95667.31;5008237;28;20627;-79
2023/07/13 01:37:47;;;;;;;4.68;1.38;;;;;;;18.49;51.23;95664.31;5029580;28;20195;-78
2023/07/13 01:40:13;;;;;;;5.10;1.23;;;;;;;18.46;51.42;95662.84;5022170;28;20225;-78
2023/07/13 01:42:40;;;;;;;3.92;1.60;;;;;;;18.42;51.41;95658.19;4998066;28;20190;-79
2023/07/13 01:45:05;;;;;;;6.78;1.45;;;;;;;18.48;51.53;95657.44;5015332;28;20183;-78
2023/07/13 01:47:31;;;;;;;1.38;1.13;;;;;;;18.40;51.56;95656.56;5016923;28;20587;-78
2023/07/13 01:49:57;;;;;;;3.97;1.23;;;;;;;18.43;51.70;95654.56;4996548;28;20211;-79
2023/07/13 01:52:22;;;;;;;4.45;1.75;;;;;;;18.38;51.58;95657.78;5020072;28;20247;-80
2023/07/13 01:54:47;;;;;;;3.22;1.20;;;;;;;18.33;51.67;95652.28;5015412;28;20195;-79
2023/07/13 01:57:13;;;;;;;2.25;1.10;;;;;;;18.34;51.53;95654.72;5014969;28;20210;-80
2023/07/13 01:59:38;;;;;;;4.68;1.42;;;;;;;18.34;51.50;95652.09;5013410;28;20258;-79
2023/07/13 02:02:04;;;;;;;4.28;1.27;;;;;;;18.30;51.60;95653.50;5028791;28;20659;-79
2023/07/13 02:04:29;;;;;;;1.77;1.30;;;;;;;18.26;51.66;95649.59;5011944;28;20190;-79
2023/07/13 02:06:55;;;;;;;2.58;1.40;;;;;;;18.17;51.76;95645.50;5010236;28;20207;-79
2023/07/13 02:09:20;;;;;;;3.08;1.40;;;;;;;18.04;52.31;95651.50;5014108;28;20207;-79
2023/07/13 02:11:46;;;;;;;2.70;1.55;;;;;;;18.13;51.98;95644.28;5005135;28;20264;-79
2023/07/13 02:14:11;;;;;;;3.83;1.42;;;;;;;18.12;51.92;95645.28;5027960;28;20186;-79
2023/07/13 02:16:36;;;;;;;3.40;1.90;;;;;;;18.16;51.54;95643.88;5010244;28;20239;-79
2023/07/13 02:19:02;;;;;;;4.85;1.88;;;;;;;18.09;51.76;95648.28;5028612;28;20186;-78
2023/07/13 02:21:27;;;;;;;6.25;1.55;;;;;;;18.05;51.91;95647.03;5031483;28;20183;-79
2023/07/13 02:23:53;;;;;;;3.10;1.30;;;;;;;17.99;52.21;95650.44;5007051;28;20194;-79
2023/07/13 02:26:18;;;;;;;6.25;2.15;;;;;;;17.95;52.13;95638.69;5022154;28;20222;-78
2023/07/13 02:28:44;;;;;;;2.40;1.33;;;;;;;17.87;52.35;95639.63;5016148;28;20851;-78
2023/07/13 02:31:13;;;;;;;2.95;1.35;;;;;;;17.93;52.01;95649.38;5019970;28;20207;-79
2023/07/13 02:33:38;;;;;;;3.65;1.40;;;;;;;17.91;52.12;95653.19;5013932;28;20186;-78
2023/07/13 02:36:05;;;;;;;3.03;1.52;;;;;;;17.98;51.67;95656.69;5007162;28;20205;-78
2023/07/13 02:38:33;;;;;;;2.50;1.50;;;;;;;17.99;51.54;95658.31;5014087;28;20206;-79
2023/07/13 02:40:59;;;;;;;2.33;1.13;;;;;;;18.06;51.52;95659.19;5016219;28;20187;-78
2023/07/13 02:43:24;;;;;;;4.95;2.03;;;;;;;17.98;51.43;95651.44;5020876;28;20179;-79
2023/07/13 02:45:49;;;;;;;4.22;1.50;;;;;;;17.99;51.36;95653.06;5016411;28;20211;-80
2023/07/13 02:48:15;;;;;;;4.40;1.50;;;;;;;18.00;51.05;95660.75;5008508;28;20804;-80
2023/07/13 02:50:40;;;;;;;2.47;1.90;;;;;;;17.97;51.02;95668.19;5023262;28;20213;-78
2023/07/13 02:53:06;;;;;;;3.65;1.55;;;;;;;17.95;51.11;95668.41;5001499;28;20197;-80
2023/07/13 02:55:31;;;;;;;5.30;1.38;;;;;;;17.92;50.87;95668.75;5015451;28;20190;-80
2023/07/13 02:57:57;;;;;;;3.60;1.35;;;;;;;17.90;50.92;95664.72;5024635;28;20340;-79
2023/07/13 03:00:22;;;;;;;4.57;1.50;;;;;;;17.80;51.11;95665.84;5021346;28;20711;-79
2023/07/13 03:02:48;;;;;;;4.70;1.48;;;;;;;17.77;51.09;95663.59;5018061;28;20206;-80
2023/07/13 03:05:14;;;;;;;2.67;1.00;;;;;;;17.77;51.00;95660.97;5018243;28;20210;-80
2023/07/13 03:07:40;;;;;;;2.72;1.45;;;;;;;17.69;51.29;95670.78;5007651;28;20207;-79
2023/07/13 03:10:06;;;;;;;2.08;1.30;;;;;;;17.72;51.02;95670.41;5015841;28;20210;-78
2023/07/13 03:12:32;;;;;;;4.97;1.38;;;;;;;17.70;51.35;95675.88;5011452;28;20191;-78
2023/07/13 03:14:57;;;;;;;3.95;1.80;;;;;;;17.67;51.22;95672.75;5028275;28;20182;-79
2023/07/13 03:17:22;;;;;;;2.80;1.50;;;;;;;17.66;51.48;95665.88;5028485;28;20203;-78
2023/07/13 03:19:49;;;;;;;4.03;1.35;;;;;;;17.58;51.36;95666.84;5014675;28;20274;-78
2023/07/13 03:22:16;;;;;;;1.80;1.45;;;;;;;17.61;51.29;95670.91;5028513;28;20187;-78
2023/07/13 03:24:41;;;;;;;2.28;1.58;;;;;;;17.56;51.75;95667.00;5013395;28;20183;-79
2023/07/13 03:27:06;;;;;;;5.22;1.48;;;;;;;17.57;51.55;95662.56;5026432;28;20210;-79
2023/07/13 03:29:32;;;;;;;3.65;1.45;;;;;;;17.53;51.49;95663.94;5015332;28;20221;-78
2023/07/13 03:31:57;;;;;;;2.75;1.20;;;;;;;17.53;51.51;95674.47;5005978;28;20194;-78
2023/07/13 03:34:22;;;;;;;4.70;1.55;;;;;;;17.61;51.06;95676.16;5029603;28;20174;-79
2023/07/13 03:36:47;;;;;;;2.53;1.30;;;;;;;17.54;51.70;95676.06;5026935;28;20207;-79
2023/07/13 03:39:13;;;;;;;2.88;1.52;;;;;;;17.64;51.47;95681.00;5013375;28;20241;-79
2023/07/13 03:41:38;;;;;;;1.95;1.42;;;;;;;17.53;51.39;95684.97;5012751;28;20183;-79
2023/07/13 03:44:04;;;;;;;2.78;1.50;;;;;;;17.65;50.82;95686.06;5021370;28;20528;-78
2023/07/13 03:46:29;;;;;;;5.13;1.88;;;;;;;17.72;50.48;95694.06;5011769;28;20229;-79
2023/07/13 03:48:54;;;;;;;2.97;1.55;;;;;;;17.76;50.65;95696.13;5003447;28;20750;-79
2023/07/13 03:51:20;;;;;;;2.88;1.30;;;;;;;17.83;50.57;95696.97;5007663;28;20301;-79
2023/07/13 03:53:48;;;;;;;5.22;1.88;;;;;;;17.86;50.48;95695.00;5012650;28;20194;-79
2023/07/13 03:56:15;;;;;;;3.95;1.60;;;;;;;17.81;50.32;95695.56;5011755;28;21036;-79
2023/07/13 03:58:41;;;;;;;4.70;1.50;;;;;;;17.92;50.57;95697.66;5027847;28;20202;-80
2023/07/13 04:01:08;;;;;;;3.95;1.45;;;;;;;18.07;49.83;95700.22;5028002;28;20185;-80
2023/07/13 04:03:34;;;;;;;4.35;1.50;;;;;;;18.28;49.46;95709.88;5020688;28;20191;-80
2023/07/13 04:06:00;;;;;;;6.43;1.80;;;;;;;18.41;48.96;95707.34;5017095;28;20651;-79
2023/07/13 04:08:30;;;;;;;3.13;1.33;;;;;;;18.34;48.80;95715.19;5013251;28;20273;-80
2023/07/13 04:10:56;;;;;;;4.72;1.67;;;;;;;18.17;49.92;95719.09;5010805;28;20213;-79
2023/07/13 04:13:21;;;;;;;6.00;1.70;;;;;;;18.11;50.35;95720.69;5006065;28;20562;-80
2023/07/13 04:15:47;;;;;;;2.42;1.50;;;;;;;18.06;50.33;95706.47;5023034;28;20207;-79
2023/07/13 04:18:12;;;;;;;2.45;1.50;;;;;;;18.03;51.10;95714.75;5013046;28;20560;-80
2023/07/13 04:20:38;;;;;;;2.05;1.45;;;;;;;17.96;50.87;95711.25;5013294;28;20659;-80
2023/07/13 04:23:03;;;;;;;2.85;1.55;;;;;;;18.03;51.30;95715.56;5013932;28;20187;-80
2023/07/13 04:25:28;;;;;;;3.33;1.60;;;;;;;18.11;51.12;95722.50;5008460;28;20189;-79
2023/07/13 04:27:54;;;;;;;4.85;1.80;;;;;;;18.21;50.46;95714.28;5005578;28;20202;-78
2023/07/13 04:30:20;;;;;;;3.78;1.80;;;;;;;18.32;51.27;95727.72;5020263;28;20210;-81
2023/07/13 04:32:45;;;;;;;3.58;1.50;;;;;;;18.54;50.77;95723.19;5017993;28;20199;-80
2023/07/13 04:35:11;;;;;;;3.80;1.88;;;;;;;19.41;49.49;95717.38;5025098;28;20559;-81
2023/07/13 04:37:36;;;;;;;4.78;1.77;;;;;;;19.84;47.95;95729.44;5013825;28;20237;-81
2023/07/13 04:40:03;;;;;;;4.75;1.52;;;;;;;19.89;46.90;95721.78;5013223;28;20184;-81
2023/07/13 04:42:28;;;;;;;2.85;1.42;;;;;;;20.06;48.24;95720.38;5017073;28;20199;-85
2023/07/13 04:44:54;;;;;;;2.40;1.48;;;;;;;21.77;44.85;95723.59;5016410;28;20244;-85
2023/07/13 04:47:19;;;;;;;2.75;1.45;;;;;;;22.78;41.37;95735.81;5030566;28;20279;-86
2023/07/13 04:49:45;;;;;;;4.28;1.50;;;;;;;24.34;39.12;95740.41;5014285;28;20235;-85
2023/07/13 04:52:11;;;;;;;2.40;1.55;;;;;;;25.00;36.77;95736.59;5023717;28;20190;-87
2023/07/13 04:54:37;;;;;;;5.22;1.40;;;;;;;26.36;34.14;95744.00;5007285;28;20684;-84
2023/07/13 04:57:03;;;;;;;2.38;1.20;;;;;;;26.78;33.23;95745.22;5011664;28;20207;-84
2023/07/13 04:59:28;;;;;;;7.90;1.90;;;;;;;27.17;33.08;95742.56;5006105;28;20660;-85
2023/07/13 05:01:53;;;;;;;3.72;1.50;;;;;;;27.26;31.88;95745.59;5027126;28;20182;-85
2023/07/13 05:04:19;;;;;;;5.97;1.60;;;;;;;26.55;32.20;95753.38;5022155;28;20194;-84
2023/07/13 05:06:44;;;;;;;2.95;1.40;;;;;;;26.93;31.34;95751.78;5011570;28;20210;-83
2023/07/13 05:09:09;;;;;;;3.40;1.60;;;;;;;26.49;32.63;95746.34;5002659;28;20253;-85
2023/07/13 05:11:35;;;;;;;4.10;1.13;;;;;;;24.78;34.86;95747.00;5020474;28;20190;-85
2023/07/13 05:14:01;;;;;;;7.68;1.70;;;;;;;23.68;36.84;95758.06;4999313;28;20610;-85
2023/07/13 05:16:26;;;;;;;4.80;1.65;;;;;;;23.24;38.08;95756.56;5014119;28;20209;-86
2023/07/13 05:18:52;;;;;;;4.30;1.48;;;;;;;22.65;39.22;95755.28;5018306;28;20258;-85
2023/07/13 05:21:17;;;;;;;3.83;1.50;;;;;;;22.45;40.10;95752.03;5014667;28;20194;-86
2023/07/13 05:23:42;;;;;;;4.07;1.90;;;;;;;22.04;40.52;95754.09;5021331;28;20252;-85
2023/07/13 05:26:07;;;;;;;3.03;1.52;;;;;;;21.72;41.11;95753.28;5017252;28;20248;-80
2023/07/13 05:28:33;;;;;;;3.13;1.58;;;;;;;21.93;40.78;95754.00;5000748;28;20190;-82
2023/07/13 05:30:58;;;;;;;3.28;1.70;;;;;;;22.40;40.29;95760.59;5024722;28;20206;-85
2023/07/13 05:33:24;;;;;;;5.18;1.67;;;;;;;23.36;39.38;95757.41;5026938;28;20186;-86
2023/07/13 05:35:50;;;;;;;4.47;1.50;;;;;;;23.46;37.76;95760.34;5011908;28;20202;-85
2023/07/13 05:38:15;;;;;;;6.57;1.52;;;;;;;24.20;37.41;95760.97;5020202;28;20651;-86
2023/07/13 05:40:43;;;;;;;4.72;1.60;;;;;;;24.90;35.63;95760.25;5011917;28;20208;-86
2023/07/13 05:43:08;;;;;;;4.15;1.58;;;;;;;24.40;35.19;95754.63;5011127;28;20187;-85
2023/07/13 05:45:33;;;;;;;2.88;1.50;;;;;;;25.36;34.41;95759.44;5009470;28;20183;-86
2023/07/13 05:47:59;;;;;;;4.28;1.80;;;;;;;26.28;32.49;95755.84;5012507;28;20205;-86
2023/07/13 05:50:26;;;;;;;4.22;1.45;;;;;;;27.08;30.99;95765.38;5016253;28;20232;-86
2023/07/13 05:52:52;;;;;;;3.03;1.40;;;;;;;27.07;31.26;95769.88;5013273;28;20610;-87
2023/07/13 05:55:17;;;;;;;3.88;1.27;;;;;;;26.94;30.76;95774.72;5029413;28;20550;-86
2023/07/13 05:57:43;;;;;;;4.65;1.20;;;;;;;26.05;31.84;95770.06;5017134;28;20293;-86
2023/07/13 06:00:08;;;;;;;3.58;1.48;;;;;;;24.98;34.44;95777.72;5022774;28;20647;-86
2023/07/13 06:02:34;;;;;;;3.35;1.60;;;;;;;25.09;34.87;95782.22;5029008;28;20179;-86
2023/07/13 06:04:59;;;;;;;3.95;1.63;;;;;;;26.10;32.36;95780.81;5007424;28;20202;-85
2023/07/13 06:07:24;;;;;;;3.40;1.75;;;;;;;27.38;30.49;95797.75;5015349;28;20264;-86
2023/07/13 06:09:50;;;;;;;2.53;1.40;;;;;;;27.68;29.36;95788.56;5006951;28;20205;-85
2023/07/13 06:12:15;;;;;;;3.08;1.40;;;;;;;27.25;30.22;95798.13;5009827;28;20195;-86
2023/07/13 06:14:40;;;;;;;4.03;1.08;;;;;;;27.96;28.80;95797.41;5002613;28;20833;-86
2023/07/13 06:17:06;;;;;;;4.55;1.50;;;;;;;29.03;27.18;95802.66;4999357;28;20210;-86
2023/07/13 06:19:31;;;;;;;4.65;1.48;;;;;;;29.29;27.28;95805.50;5006843;28;20657;-83
2023/07/13 06:21:58;;;;;;;3.15;1.42;;;;;;;30.47;25.39;95807.53;5013825;28;20237;-84
2023/07/13 06:24:24;;;;;;;3.63;1.35;;;;;;;30.39;25.16;95805.38;5005144;28;20225;-83
2023/07/13 06:26:49;;;;;;;2.67;1.85;;;;;;;30.54;24.78;95813.44;5020351;28;20990;-85
2023/07/13 06:29:14;;;;;;;3.60;1.30;;;;;;;30.39;25.27;95816.09;4999744;28;20198;-84
2023/07/13 06:31:39;;;;;;;3.05;1.08;;;;;;;30.80;24.30;95808.91;5010856;28;20187;-84
2023/07/13 06:34:05;;;;;;;2.42;1.48;;;;;;;30.82;24.38;95814.78;5005900;28;20217;-85
2023/07/13 06:36:30;;;;;;;3.15;1.40;;;;;;;30.17;25.04;95817.13;5007530;28;20285;-86
2023/07/13 06:38:55;;;;;;;3.65;1.30;;;;;;;30.57;25.30;95820.13;5010095;28;20320;-85
2023/07/13 06:41:22;;;;;;;4.05;1.40;;;;;;;29.69;25.93;95815.63;5007526;28;20187;-84
2023/07/13 06:43:47;;;;;;;2.75;1.20;;;;;;;30.41;24.67;95822.00;5015155;28;20213;-85
2023/07/13 06:46:12;;;;;;;3.95;1.50;;;;;;;29.89;25.53;95821.03;5014153;28;20249;-84
2023/07/13 06:48:38;;;;;;;3.78;1.45;;;;;;;30.87;24.03;95833.56;5015979;28;20194;-85
2023/07/13 06:51:03;;;;;;;3.30;1.40;;;;;;;30.33;24.50;95828.69;5010200;28;20316;-84
2023/07/13 06:53:29;;;;;;;5.93;1.77;;;;;;;30.53;24.81;95833.25;5015072;28;20186;-84
2023/07/13 06:55:54;;;;;;;3.63;1.30;;;;;;;30.92;23.80;95827.38;5007168;28;20772;-85
2023/07/13 06:58:20;;;;;;;2.90;1.10;;;;;;;31.70;22.84;95835.03;5016096;28;20277;-85
2023/07/13 07:00:46;;;;;;;3.92;1.55;;;;;;;30.40;24.78;95829.25;5016043;28;20213;-85
2023/07/13 07:03:11;;;;;;;2.38;1.20;;;;;;;31.36;22.97;95834.88;5026050;28;20190;-85
2023/07/13 07:05:36;;;;;;;3.28;1.20;;;;;;;29.58;25.04;95825.44;5009213;28;20195;-86
2023/07/13 07:08:02;;;;;;;4.32;1.63;;;;;;;30.17;24.79;95833.19;5015229;28;20191;-85
2023/07/13 07:10:30;;;;;;;4.65;1.40;;;;;;;30.62;23.55;95841.56;5003553;28;20210;-86
2023/07/13 07:12:55;;;;;;;3.40;1.58;;;;;;;30.84;24.07;95838.69;5015133;28;20196;-85
2023/07/13 07:15:20;;;;;;;3.05;1.27;;;;;;;31.81;22.55;95853.56;5025038;28;20190;-86
2023/07/13 07:17:46;;;;;;;4.72;1.05;;;;;;;31.79;22.21;95853.03;5013658;28;20194;-85
2023/07/13 07:20:11;;;;;;;3.42;1.30;;;;;;;29.68;24.29;95839.94;5014265;28;20170;-85
2023/07/13 07:22:37;;;;;;;5.05;1.40;;;;;;;30.06;24.44;95852.16;5014709;28;20224;-85
2023/07/13 07:25:02;;;;;;;3.42;1.75;;;;;;;31.25;21.50;95842.94;5029119;28;20185;-86
2023/07/13 07:27:28;;;;;;;4.45;1.25;;;;;;;31.69;21.90;95853.03;5024348;28;20400;-85
2023/07/13 07:29:53;;;;;;;1.05;0.95;;;;;;;31.35;20.63;95841.31;5004456;28;20245;-84
2023/07/13 07:32:19;;;;;;;4.75;1.05;;;;;;;30.78;21.71;95853.16;5004356;28;20258;-85
2023/07/13 07:34:45;;;;;;;4.20;1.27;;;;;;;30.38;22.67;95843.94;5010863;28;20221;-83
2023/07/13 07:37:12;;;;;;;2.33;1.08;;;;;;;30.18;22.13;95845.53;5003150;28;20591;-82
2023/07/13 07:39:38;;;;;;;3.65;1.00;;;;;;;30.73;21.66;95838.66;5016900;28;20229;-81
2023/07/13 07:42:03;;;;;;;3.15;1.30;;;;;;;30.22;22.86;95842.34;5018808;28;20183;-79
2023/07/13 07:44:31;;;;;;;3.00;1.40;;;;;;;30.80;22.29;95854.47;5030307;28;20198;-83
2023/07/13 07:46:56;;;;;;;2.70;1.25;;;;;;;30.52;22.01;95844.25;5026082;28;20218;-83
2023/07/13 07:49:21;;;;;;;3.13;1.50;;;;;;;30.22;22.33;95851.16;5004425;28;20195;-80
2023/07/13 07:51:47;;;;;;;2.95;1.15;;;;;;;30.79;22.52;95847.50;5029980;28;20182;-80
2023/07/13 07:54:13;;;;;;;5.47;1.50;;;;;;;29.31;24.04;95848.81;5026217;28;20666;-83
2023/07/13 07:56:38;;;;;;;3.22;1.30;;;;;;;29.48;24.36;95845.97;5004693;28;20211;-84
2023/07/13 07:59:03;;;;;;;2.90;1.17;;;;;;;29.70;23.71;95851.22;5023616;28;20187;-84
2023/07/13 08:01:29;;;;;;;3.35;1.15;;;;;;;29.61;23.58;95849.03;5019873;28;20575;-81
2023/07/13 08:03:54;;;;;;;4.57;1.13;;;;;;;29.21;25.07;95859.47;5010345;28;20537;-84
2023/07/13 08:06:19;;;;;;;3.75;1.00;;;;;;;28.66;24.40;95850.72;5010730;28;20206;-83
2023/07/13 08:08:45;;;;;;;4.00;1.10;;;;;;;29.00;24.67;95856.66;5026928;28;20213;-84
2023/07/13 08:11:11;;;;;;;2.67;1.27;;;;;;;28.25;25.40;95865.50;5028326;28;20201;-83
2023/07/13 08:13:37;;;;;;;4.13;1.70;;;;;;;27.65;25.12;95863.69;5014759;28;20672;-84
2023/07/13 08:16:04;;;;;;;3.25;1.10;;;;;;;28.20;25.77;95858.28;5022764;28;20210;-84
2023/07/13 08:18:30;;;;;;;3.75;1.33;;;;;;;28.29;25.94;95863.19;5028107;28;20194;-83
2023/07/13 08:20:56;;;;;;;3.03;1.20;;;;;;;27.92;25.12;95861.16;5025211;28;20186;-83
2023/07/13 08:23:22;;;;;;;2.85;1.10;;;;;;;27.15;26.19;95856.63;5023299;28;20193;-84
2023/07/13 08:25:54;;;;;;;1.58;0.98;;;;;;;27.46;27.23;95855.19;5028624;28;20293;-84
2023/07/13 08:28:25;;;;;;;5.88;1.10;;;;;;;27.04;27.03;95857.53;5021160;28;20190;-83
2023/07/13 08:30:51;;;;;;;1.77;0.98;;;;;;;27.02;27.54;95848.91;5037241;28;20210;-84
2023/07/13 08:33:17;;;;;;;4.22;1.50;;;;;;;27.05;27.41;95851.16;4997460;28;20277;-84
2023/07/13 08:35:46;;;;;;;4.38;1.27;;;;;;;26.51;27.77;95851.59;5012067;28;20261;-83
2023/07/13 08:38:11;;;;;;;2.80;1.08;;;;;;;25.77;29.22;95848.03;5000656;28;20190;-83
2023/07/13 08:40:37;;;;;;;2.63;1.20;;;;;;;26.33;28.03;95848.28;5003544;28;20182;-84
2023/07/13 08:43:02;;;;;;;3.45;1.35;;;;;;;26.24;28.08;95845.22;5013051;28;20183;-83
2023/07/13 08:45:33;;;;;;;3.25;1.45;;;;;;;25.93;29.60;95857.13;5006599;28;20630;-83
2023/07/13 08:48:11;;;;;;;4.63;1.67;;;;;;;26.02;29.83;95852.25;5012172;28;20244;-83
2023/07/13 08:50:52;;;;;;;2.85;1.35;;;;;;;25.34;29.97;95851.88;5024283;28;20207;-83
2023/07/13 08:53:18;;;;;;;9.45;1.83;;;;;;;25.24;31.16;95850.84;5019728;28;20194;-83
2023/07/13 08:55:44;;;;;;;8.45;1.50;;;;;;;24.69;32.74;95843.19;5020611;28;20211;-82
2023/07/13 08:58:12;;;;;;;3.95;1.60;;;;;;;25.04;32.36;95843.25;5006166;28;20563;-83
2023/07/13 09:01:09;;;;;;;3.05;1.38;;;;;;;25.70;31.64;95861.44;5016100;28;20194;-82
2023/07/13 09:03:49;;;;;;;2.17;1.20;;;;;;;25.55;31.48;95858.47;5024288;28;20562;-83
2023/07/13 09:06:14;;;;;;;4.35;1.67;;;;;;;25.76;31.50;95856.25;5023911;28;20228;-83
2023/07/13 09:09:03;;;;;;;4.03;1.20;;;;;;;25.70;32.80;95871.25;5020828;28;20222;-83
2023/07/13 09:11:55;;;;;;;2.35;1.10;;;;;;;25.90;31.27;95862.94;5024052;28;20206;-83
2023/07/13 09:14:37;;;;;;;3.88;1.40;;;;;;;25.73;31.14;95856.72;5019781;28;20199;-83
2023/07/13 09:17:12;;;;;;;6.03;1.27;;;;;;;24.90;32.52;95861.22;5015124;28;20634;-84
2023/07/13 09:19:37;;;;;;;3.80;1.40;;;;;;;25.57;32.49;95855.56;5022823;28;20182;-83
2023/07/13 09:22:05;;;;;;;5.00;1.10;;;;;;;26.08;31.56;95862.75;5013587;28;20182;-81
2023/07/13 09:24:37;;;;;;;3.33;1.35;;;;;;;26.12;32.15;95855.91;5024272;28;20189;-82
2023/07/13 09:27:12;;;;;;;5.55;1.30;;;;;;;26.18;30.71;95860.28;5031826;28;20198;-83
2023/07/13 09:29:43;;;;;;;4.88;1.33;;;;;;;25.21;32.99;95856.66;5016337;28;20189;-83
2023/07/13 09:32:10;;;;;;;4.82;1.35;;;;;;;25.22;32.55;95848.44;5015940;28;20747;-83
2023/07/13 09:34:35;;;;;;;4.82;1.30;;;;;;;25.68;33.07;95852.88;5019718;28;20210;-83
2023/07/13 09:37:01;;;;;;;3.88;1.48;;;;;;;26.24;32.24;95854.00;5026230;28;20206;-82
2023/07/13 09:39:30;;;;;;;4.45;1.48;;;;;;;26.05;32.31;95854.41;5004003;28;20187;-83
2023/07/13 09:42:07;;;;;;;3.10;1.30;;;;;;;26.36;30.49;95869.13;5009874;28;20217;-83
2023/07/13 09:44:38;;;;;;;2.70;1.05;;;;;;;26.67;29.14;95859.81;5027600;28;20213;-83
2023/07/13 09:47:16;;;;;;;4.57;1.15;;;;;;;26.48;28.65;95859.22;5017324;28;20214;-82
2023/07/13 09:49:43;;;;;;;7.57;1.40;;;;;;;26.47;28.58;95855.75;5006295;28;20206;-83
2023/07/13 09:52:12;;;;;;;3.30;1.30;;;;;;;26.01;29.57;95854.09;5018754;28;20278;-83
2023/07/13 09:54:38;;;;;;;3.00;1.70;;;;;;;26.13;30.40;95852.19;5008151;28;20222;-82
2023/07/13 09:57:12;;;;;;;4.63;1.60;;;;;;;25.46;30.12;95849.22;5011011;28;20220;-82
2023/07/13 09:59:41;;;;;;;2.13;1.23;;;;;;;25.45;30.90;95850.28;5023900;28;20273;-83
2023/07/13 10:02:26;;;;;;;3.70;1.33;;;;;;;25.21;32.20;95857.44;5028550;28;20653;-83
2023/07/13 10:05:22;;;;;;;3.30;1.48;;;;;;;25.07;31.52;95850.75;5020563;28;20189;-83
2023/07/13 10:07:47;;;;;;;2.83;1.30;;;;;;;25.41;31.59;95857.09;5024451;28;20194;-83
2023/07/13 10:10:19;;;;;;;3.20;1.30;;;;;;;25.29;31.57;95859.75;5011505;28;20202;-83
2023/07/13 10:12:45;;;;;;;3.33;1.70;;;;;;;24.79;32.82;95859.34;5000431;28;20651;-83
2023/07/13 10:15:18;;;;;;;5.97;1.80;;;;;;;25.02;32.21;95854.09;5012087;28;20197;-83
2023/07/13 10:17:43;;;;;;;3.45;1.33;;;;;;;24.76;33.18;95852.66;5012643;28;20214;-82
2023/07/13 10:20:12;;;;;;;4.00;1.33;;;;;;;24.63;33.94;95860.81;5012646;28;20186;-82
2023/07/13 10:22:45;;;;;;;2.70;1.50;;;;;;;24.65;34.13;95853.47;5013670;28;20191;-82
2023/07/13 10:25:19;;;;;;;2.38;1.30;;;;;;;25.32;32.78;95863.78;5026912;28;20179;-78
2023/07/13 10:27:45;;;;;;;5.85;1.65;;;;;;;24.96;32.23;95854.97;5013949;28;20190;-83
2023/07/13 10:30:19;;;;;;;5.80;1.23;;;;;;;25.18;32.77;95857.09;5013262;28;20214;-82
2023/07/13 10:32:46;;;;;;;5.45;1.35;;;;;;;25.08;31.85;95860.31;5022630;28;20698;-82
2023/07/13 10:35:13;;;;;;;2.75;1.30;;;;;;;25.85;32.19;95870.78;5023722;28;20237;-83
2023/07/13 10:37:49;;;;;;;1.60;1.50;;;;;;;26.06;30.24;95864.00;5018634;28;20213;-83
2023/07/13 10:40:19;;;;;;;3.53;1.33;;;;;;;26.16;30.43;95866.88;5025104;28;20668;-83
2023/07/13 10:42:47;;;;;;;5.97;1.90;;;;;;;26.26;29.01;95864.41;5001616;28;20373;-82
2023/07/13 10:45:18;;;;;;;3.92;1.33;;;;;;;25.78;30.20;95851.50;5021626;28;20727;-82
2023/07/13 10:47:45;;;;;;;3.00;1.30;;;;;;;26.22;30.38;95864.06;5013683;28;20215;-83
2023/07/13 10:50:18;;;;;;;3.58;1.25;;;;;;;26.14;29.63;95858.31;5003713;28;20627;-83
2023/07/13 10:52:51;;;;;;;3.45;1.52;;;;;;;26.60;29.10;95859.19;5010534;28;20182;-83
2023/07/13 10:55:54;;;;;;;4.50;1.10;;;;;;;26.41;29.54;95856.72;5029699;28;20183;-84
2023/07/13 10:58:22;;;;;;;2.75;1.42;;;;;;;26.64;28.38;95857.66;5023071;28;20183;-82
2023/07/13 11:01:06;;;;;;;5.18;1.60;;;;;;;26.00;29.35;95847.16;5019572;28;20193;-82
2023/07/13 11:03:34;;;;;;;2.20;1.33;;;;;;;25.98;29.41;95841.28;5028110;28;20214;-83
2023/07/13 11:06:22;;;;;;;3.20;1.25;;;;;;;26.54;28.70;95847.63;5015146;28;20348;-83
2023/07/13 11:08:47;;;;;;;3.83;1.50;;;;;;;26.49;28.02;95840.34;5022143;28;20194;-83
2023/07/13 11:11:39;;;;;;;3.50;1.40;;;;;;;26.24;28.86;95842.56;5024579;28;20683;-82
2023/07/13 11:14:44;;;;;;;3.88;1.63;;;;;;;26.37;29.45;95850.22;5027652;28;20851;-82
2023/07/13 11:17:32;;;;;;;2.70;1.50;;;;;;;26.51;28.50;95845.47;5027451;28;20217;-82
2023/07/13 11:20:12;;;;;;;4.45;1.70;;;;;;;26.29;29.19;95847.97;5028442;28;20178;-82
2023/07/13 11:22:52;;;;;;;2.83;1.75;;;;;;;26.39;29.35;95852.69;5025094;28;20191;-81
2023/07/13 11:25:27;;;;;;;4.82;1.63;;;;;;;26.37;29.32;95833.44;5027926;28;20182;-83
2023/07/13 11:28:12;;;;;;;2.13;1.40;;;;;;;26.01;28.72;95846.09;5025831;28;20186;-83
2023/07/13 11:30:43;;;;;;;3.25;1.48;;;;;;;25.72;28.96;95841.81;5034825;28;20647;-82
2023/07/13 11:33:22;;;;;;;4.25;1.40;;;;;;;26.37;29.41;95846.75;5025511;28;20245;-83
2023/07/13 11:35:52;;;;;;;3.42;1.77;;;;;;;26.29;27.77;95841.81;5022176;28;20684;-83
2023/07/13 11:38:30;;;;;;;3.83;1.65;;;;;;;26.90;28.77;95835.69;5001470;28;20191;-81